sensor_id;sensor_type;location;lat;lon;timestamp;P1;durP1;ratioP1;P2;durP2;ratioP2
50417;SDS011;36346;48.280;14.292;2023-11-18T00:00:56;8.55;;;8.54;;
50417;SDS011;36346;48.280;14.292;2023-11-18T00:03:26;8.29;;;8.28;;
50417;SDS011;36346;48.280;14.292;2023-11-18T00:05:54;8.04;;;8.04;;
50417;SDS011;36346;48.280;14.292;2023-11-18T00:08:22;8.36;;;8.34;;
50417;SDS011;36346;48.280;14.292;2023-11-18T00:10:50;7.87;;;7.87;;
50417;SDS011;36346;48.280;14.292;2023-11-18T00:13:18;8.03;;;8.03;;
50417;SDS011;36346;48.280;14.292;2023-11-18T00:15:47;7.88;;;7.87;;
50417;SDS011;36346;48.280;14.292;2023-11-18T00:18:16;7.89;;;7.89;;
50417;SDS011;36346;48.280;14.292;2023-11-18T00:20:44;7.98;;;7.96;;
50417;SDS011;36346;48.280;14.292;2023-11-18T00:23:12;7.91;;;7.90;;
50417;SDS011;36346;48.280;14.292;2023-11-18T00:25:40;7.90;;;7.88;;
50417;SDS011;36346;48.280;14.292;2023-11-18T00:28:08;7.63;;;7.63;;
50417;SDS011;36346;48.280;14.292;2023-11-18T00:30:38;7.73;;;7.73;;
50417;SDS011;36346;48.280;14.292;2023-11-18T00:33:07;7.87;;;7.87;;
50417;SDS011;36346;48.280;14.292;2023-11-18T00:35:36;7.96;;;7.96;;
50417;SDS011;36346;48.280;14.292;2023-11-18T00:38:07;7.74;;;7.74;;
50417;SDS011;36346;48.280;14.292;2023-11-18T00:40:35;7.69;;;7.69;;
50417;SDS011;36346;48.280;14.292;2023-11-18T00:43:04;7.52;;;7.52;;
50417;SDS011;36346;48.280;14.292;2023-11-18T00:45:33;7.07;;;7.07;;
50417;SDS011;36346;48.280;14.292;2023-11-18T00:48:01;7.04;;;7.04;;
50417;SDS011;36346;48.280;14.292;2023-11-18T00:50:33;6.83;;;6.82;;
50417;SDS011;36346;48.280;14.292;2023-11-18T00:53:01;6.95;;;6.95;;
50417;SDS011;36346;48.280;14.292;2023-11-18T00:55:29;6.86;;;6.85;;
50417;SDS011;36346;48.280;14.292;2023-11-18T00:57:57;6.65;;;6.64;;
50417;SDS011;36346;48.280;14.292;2023-11-18T01:00:26;7.02;;;7.02;;
50417;SDS011;36346;48.280;14.292;2023-11-18T01:02:54;6.99;;;6.99;;
50417;SDS011;36346;48.280;14.292;2023-11-18T01:05:22;6.60;;;6.60;;
50417;SDS011;36346;48.280;14.292;2023-11-18T01:07:50;7.23;;;7.23;;
50417;SDS011;36346;48.280;14.292;2023-11-18T01:10:18;6.71;;;6.70;;
50417;SDS011;36346;48.280;14.292;2023-11-18T01:12:46;6.92;;;6.92;;
50417;SDS011;36346;48.280;14.292;2023-11-18T01:15:15;6.95;;;6.95;;
50417;SDS011;36346;48.280;14.292;2023-11-18T01:17:43;7.25;;;7.22;;
50417;SDS011;36346;48.280;14.292;2023-11-18T01:20:12;6.96;;;6.96;;
50417;SDS011;36346;48.280;14.292;2023-11-18T01:22:41;7.26;;;7.26;;
50417;SDS011;36346;48.280;14.292;2023-11-18T01:25:13;7.21;;;7.21;;
50417;SDS011;36346;48.280;14.292;2023-11-18T01:27:45;7.62;;;7.62;;
50417;SDS011;36346;48.280;14.292;2023-11-18T01:30:14;7.51;;;7.50;;
50417;SDS011;36346;48.280;14.292;2023-11-18T01:32:42;8.05;;;8.05;;
50417;SDS011;36346;48.280;14.292;2023-11-18T01:35:12;9.07;;;9.07;;
50417;SDS011;36346;48.280;14.292;2023-11-18T01:37:40;8.32;;;8.32;;
50417;SDS011;36346;48.280;14.292;2023-11-18T01:40:10;8.56;;;8.56;;
50417;SDS011;36346;48.280;14.292;2023-11-18T01:42:43;8.79;;;8.79;;
50417;SDS011;36346;48.280;14.292;2023-11-18T01:45:14;8.79;;;8.79;;
50417;SDS011;36346;48.280;14.292;2023-11-18T01:47:44;8.76;;;8.76;;
50417;SDS011;36346;48.280;14.292;2023-11-18T01:50:13;8.85;;;8.85;;
50417;SDS011;36346;48.280;14.292;2023-11-18T01:52:43;8.60;;;8.59;;
50417;SDS011;36346;48.280;14.292;2023-11-18T01:55:13;8.90;;;8.89;;
50417;SDS011;36346;48.280;14.292;2023-11-18T01:57:42;8.49;;;8.48;;
50417;SDS011;36346;48.280;14.292;2023-11-18T02:00:12;8.79;;;8.79;;
50417;SDS011;36346;48.280;14.292;2023-11-18T02:02:42;8.99;;;8.98;;
50417;SDS011;36346;48.280;14.292;2023-11-18T02:05:12;8.87;;;8.87;;
50417;SDS011;36346;48.280;14.292;2023-11-18T02:07:40;9.16;;;9.09;;
50417;SDS011;36346;48.280;14.292;2023-11-18T02:10:11;9.13;;;9.12;;
50417;SDS011;36346;48.280;14.292;2023-11-18T02:15:36;8.85;;;8.85;;
50417;SDS011;36346;48.280;14.292;2023-11-18T02:18:07;9.56;;;9.56;;
50417;SDS011;36346;48.280;14.292;2023-11-18T02:20:37;9.61;;;9.61;;
50417;SDS011;36346;48.280;14.292;2023-11-18T02:23:08;9.34;;;9.34;;
50417;SDS011;36346;48.280;14.292;2023-11-18T02:25:41;9.99;;;9.99;;
50417;SDS011;36346;48.280;14.292;2023-11-18T02:28:12;9.93;;;9.92;;
50417;SDS011;36346;48.280;14.292;2023-11-18T02:30:40;9.75;;;9.74;;
50417;SDS011;36346;48.280;14.292;2023-11-18T02:33:25;10.29;;;10.29;;
50417;SDS011;36346;48.280;14.292;2023-11-18T02:35:59;9.53;;;9.53;;
50417;SDS011;36346;48.280;14.292;2023-11-18T02:38:35;10.16;;;10.16;;
50417;SDS011;36346;48.280;14.292;2023-11-18T02:41:13;9.62;;;9.62;;
50417;SDS011;36346;48.280;14.292;2023-11-18T02:43:46;9.09;;;9.09;;
50417;SDS011;36346;48.280;14.292;2023-11-18T02:46:15;9.66;;;9.65;;
50417;SDS011;36346;48.280;14.292;2023-11-18T02:48:44;9.63;;;9.63;;
50417;SDS011;36346;48.280;14.292;2023-11-18T02:51:12;9.29;;;9.29;;
50417;SDS011;36346;48.280;14.292;2023-11-18T02:53:40;9.61;;;9.60;;
50417;SDS011;36346;48.280;14.292;2023-11-18T02:56:11;10.06;;;10.04;;
50417;SDS011;36346;48.280;14.292;2023-11-18T02:58:42;9.46;;;9.46;;
50417;SDS011;36346;48.280;14.292;2023-11-18T03:01:10;9.55;;;9.55;;
50417;SDS011;36346;48.280;14.292;2023-11-18T03:03:38;9.91;;;9.88;;
50417;SDS011;36346;48.280;14.292;2023-11-18T03:06:08;9.30;;;9.29;;
50417;SDS011;36346;48.280;14.292;2023-11-18T03:08:38;9.90;;;9.78;;
50417;SDS011;36346;48.280;14.292;2023-11-18T03:11:09;10.00;;;9.96;;
50417;SDS011;36346;48.280;14.292;2023-11-18T03:13:38;8.93;;;8.90;;
50417;SDS011;36346;48.280;14.292;2023-11-18T03:16:07;8.87;;;8.87;;
50417;SDS011;36346;48.280;14.292;2023-11-18T03:18:39;8.85;;;8.80;;
50417;SDS011;36346;48.280;14.292;2023-11-18T03:21:11;9.37;;;9.26;;
50417;SDS011;36346;48.280;14.292;2023-11-18T03:23:41;8.86;;;8.77;;
50417;SDS011;36346;48.280;14.292;2023-11-18T03:26:09;8.89;;;8.89;;
50417;SDS011;36346;48.280;14.292;2023-11-18T03:28:40;9.03;;;9.03;;
50417;SDS011;36346;48.280;14.292;2023-11-18T03:31:08;9.07;;;9.07;;
50417;SDS011;36346;48.280;14.292;2023-11-18T03:33:36;8.77;;;8.77;;
50417;SDS011;36346;48.280;14.292;2023-11-18T03:36:05;9.02;;;8.99;;
50417;SDS011;36346;48.280;14.292;2023-11-18T03:38:33;8.74;;;8.74;;
50417;SDS011;36346;48.280;14.292;2023-11-18T03:41:02;9.27;;;9.27;;
50417;SDS011;36346;48.280;14.292;2023-11-18T03:43:31;9.13;;;9.13;;
50417;SDS011;36346;48.280;14.292;2023-11-18T03:45:58;9.35;;;9.35;;
50417;SDS011;36346;48.280;14.292;2023-11-18T03:48:27;9.04;;;9.04;;
50417;SDS011;36346;48.280;14.292;2023-11-18T03:50:55;9.20;;;9.19;;
50417;SDS011;36346;48.280;14.292;2023-11-18T03:53:23;9.05;;;9.04;;
50417;SDS011;36346;48.280;14.292;2023-11-18T03:55:52;9.25;;;9.21;;
50417;SDS011;36346;48.280;14.292;2023-11-18T03:58:20;9.13;;;9.13;;
50417;SDS011;36346;48.280;14.292;2023-11-18T04:00:47;8.71;;;8.71;;
50417;SDS011;36346;48.280;14.292;2023-11-18T04:03:16;9.48;;;9.44;;
50417;SDS011;36346;48.280;14.292;2023-11-18T04:05:44;9.64;;;9.64;;
50417;SDS011;36346;48.280;14.292;2023-11-18T04:08:12;9.29;;;9.29;;
50417;SDS011;36346;48.280;14.292;2023-11-18T04:10:40;9.54;;;9.54;;
50417;SDS011;36346;48.280;14.292;2023-11-18T04:13:11;9.50;;;9.46;;
50417;SDS011;36346;48.280;14.292;2023-11-18T04:15:39;9.09;;;9.02;;
50417;SDS011;36346;48.280;14.292;2023-11-18T04:18:07;9.09;;;9.08;;
50417;SDS011;36346;48.280;14.292;2023-11-18T04:20:35;9.38;;;9.38;;
50417;SDS011;36346;48.280;14.292;2023-11-18T04:23:04;9.34;;;9.34;;
50417;SDS011;36346;48.280;14.292;2023-11-18T04:25:32;9.08;;;9.08;;
50417;SDS011;36346;48.280;14.292;2023-11-18T04:28:00;9.14;;;9.14;;
50417;SDS011;36346;48.280;14.292;2023-11-18T04:30:29;9.72;;;9.72;;
50417;SDS011;36346;48.280;14.292;2023-11-18T04:32:57;9.05;;;9.05;;
50417;SDS011;36346;48.280;14.292;2023-11-18T04:35:25;9.00;;;9.00;;
50417;SDS011;36346;48.280;14.292;2023-11-18T04:37:54;9.35;;;9.34;;
50417;SDS011;36346;48.280;14.292;2023-11-18T04:40:24;9.24;;;9.24;;
50417;SDS011;36346;48.280;14.292;2023-11-18T04:42:51;9.29;;;9.29;;
50417;SDS011;36346;48.280;14.292;2023-11-18T04:45:20;9.19;;;9.19;;
50417;SDS011;36346;48.280;14.292;2023-11-18T04:47:48;9.18;;;9.18;;
50417;SDS011;36346;48.280;14.292;2023-11-18T04:50:18;9.25;;;9.25;;
50417;SDS011;36346;48.280;14.292;2023-11-18T04:52:46;8.99;;;8.98;;
50417;SDS011;36346;48.280;14.292;2023-11-18T04:55:14;9.83;;;9.78;;
50417;SDS011;36346;48.280;14.292;2023-11-18T04:57:42;10.12;;;10.10;;
50417;SDS011;36346;48.280;14.292;2023-11-18T05:00:11;9.60;;;9.60;;
50417;SDS011;36346;48.280;14.292;2023-11-18T05:02:39;9.05;;;9.04;;
50417;SDS011;36346;48.280;14.292;2023-11-18T05:05:09;9.19;;;9.16;;
50417;SDS011;36346;48.280;14.292;2023-11-18T05:07:37;9.26;;;9.26;;
50417;SDS011;36346;48.280;14.292;2023-11-18T05:10:06;9.19;;;9.19;;
50417;SDS011;36346;48.280;14.292;2023-11-18T05:12:38;8.53;;;8.48;;
50417;SDS011;36346;48.280;14.292;2023-11-18T05:15:07;8.90;;;8.89;;
50417;SDS011;36346;48.280;14.292;2023-11-18T05:17:36;9.05;;;9.03;;
50417;SDS011;36346;48.280;14.292;2023-11-18T05:20:05;9.62;;;9.61;;
50417;SDS011;36346;48.280;14.292;2023-11-18T05:22:36;11.59;;;11.59;;
50417;SDS011;36346;48.280;14.292;2023-11-18T05:25:04;9.59;;;9.59;;
50417;SDS011;36346;48.280;14.292;2023-11-18T05:27:34;9.04;;;9.03;;
50417;SDS011;36346;48.280;14.292;2023-11-18T05:30:02;8.42;;;8.42;;
50417;SDS011;36346;48.280;14.292;2023-11-18T05:32:30;9.04;;;9.04;;
50417;SDS011;36346;48.280;14.292;2023-11-18T05:35:00;9.22;;;9.20;;
50417;SDS011;36346;48.280;14.292;2023-11-18T05:37:28;8.39;;;8.35;;
50417;SDS011;36346;48.280;14.292;2023-11-18T05:39:57;8.67;;;8.65;;
50417;SDS011;36346;48.280;14.292;2023-11-18T05:42:35;9.04;;;9.04;;
50417;SDS011;36346;48.280;14.292;2023-11-18T05:45:07;8.87;;;8.87;;
50417;SDS011;36346;48.280;14.292;2023-11-18T05:47:37;9.15;;;9.15;;
50417;SDS011;36346;48.280;14.292;2023-11-18T05:50:05;9.64;;;9.64;;
50417;SDS011;36346;48.280;14.292;2023-11-18T05:52:34;10.01;;;10.01;;
50417;SDS011;36346;48.280;14.292;2023-11-18T05:55:02;9.31;;;9.31;;
50417;SDS011;36346;48.280;14.292;2023-11-18T05:57:30;9.49;;;9.47;;
50417;SDS011;36346;48.280;14.292;2023-11-18T06:00:00;9.76;;;9.69;;
50417;SDS011;36346;48.280;14.292;2023-11-18T06:02:27;9.25;;;9.20;;
50417;SDS011;36346;48.280;14.292;2023-11-18T06:04:58;8.87;;;8.87;;
50417;SDS011;36346;48.280;14.292;2023-11-18T06:07:26;9.69;;;9.68;;
50417;SDS011;36346;48.280;14.292;2023-11-18T06:09:55;9.61;;;9.61;;
50417;SDS011;36346;48.280;14.292;2023-11-18T06:12:25;9.63;;;9.62;;
50417;SDS011;36346;48.280;14.292;2023-11-18T06:14:54;9.08;;;9.08;;
50417;SDS011;36346;48.280;14.292;2023-11-18T06:17:22;9.37;;;9.37;;
50417;SDS011;36346;48.280;14.292;2023-11-18T06:19:51;9.46;;;9.46;;
50417;SDS011;36346;48.280;14.292;2023-11-18T06:22:19;9.36;;;9.34;;
50417;SDS011;36346;48.280;14.292;2023-11-18T06:24:52;9.23;;;9.23;;
50417;SDS011;36346;48.280;14.292;2023-11-18T06:27:21;9.06;;;9.06;;
50417;SDS011;36346;48.280;14.292;2023-11-18T06:29:50;9.50;;;9.50;;
50417;SDS011;36346;48.280;14.292;2023-11-18T06:32:22;9.50;;;9.50;;
50417;SDS011;36346;48.280;14.292;2023-11-18T06:34:53;10.00;;;9.99;;
50417;SDS011;36346;48.280;14.292;2023-11-18T06:37:23;10.04;;;10.00;;
50417;SDS011;36346;48.280;14.292;2023-11-18T06:39:51;9.77;;;9.77;;
50417;SDS011;36346;48.280;14.292;2023-11-18T06:42:20;9.86;;;9.85;;
50417;SDS011;36346;48.280;14.292;2023-11-18T06:44:51;10.15;;;10.05;;
50417;SDS011;36346;48.280;14.292;2023-11-18T06:47:19;10.04;;;9.95;;
50417;SDS011;36346;48.280;14.292;2023-11-18T06:49:48;9.95;;;9.95;;
50417;SDS011;36346;48.280;14.292;2023-11-18T06:52:20;9.74;;;9.74;;
50417;SDS011;36346;48.280;14.292;2023-11-18T06:54:48;10.07;;;10.06;;
50417;SDS011;36346;48.280;14.292;2023-11-18T06:57:19;9.80;;;9.78;;
50417;SDS011;36346;48.280;14.292;2023-11-18T06:59:47;10.90;;;10.88;;
50417;SDS011;36346;48.280;14.292;2023-11-18T07:02:16;11.19;;;11.19;;
50417;SDS011;36346;48.280;14.292;2023-11-18T07:04:44;10.82;;;10.82;;
50417;SDS011;36346;48.280;14.292;2023-11-18T07:07:14;11.05;;;10.93;;
50417;SDS011;36346;48.280;14.292;2023-11-18T07:09:42;10.42;;;10.41;;
50417;SDS011;36346;48.280;14.292;2023-11-18T07:12:12;9.92;;;9.91;;
50417;SDS011;36346;48.280;14.292;2023-11-18T07:14:40;9.31;;;9.30;;
50417;SDS011;36346;48.280;14.292;2023-11-18T07:17:08;9.31;;;9.31;;
50417;SDS011;36346;48.280;14.292;2023-11-18T07:19:36;9.12;;;9.12;;
50417;SDS011;36346;48.280;14.292;2023-11-18T07:22:04;9.11;;;9.11;;
50417;SDS011;36346;48.280;14.292;2023-11-18T07:24:35;9.12;;;9.12;;
50417;SDS011;36346;48.280;14.292;2023-11-18T07:27:03;8.93;;;8.93;;
50417;SDS011;36346;48.280;14.292;2023-11-18T07:29:33;9.36;;;9.28;;
50417;SDS011;36346;48.280;14.292;2023-11-18T07:32:01;9.10;;;9.08;;
50417;SDS011;36346;48.280;14.292;2023-11-18T07:34:33;9.60;;;9.59;;
50417;SDS011;36346;48.280;14.292;2023-11-18T07:37:01;9.25;;;9.21;;
50417;SDS011;36346;48.280;14.292;2023-11-18T07:39:29;10.14;;;10.13;;
50417;SDS011;36346;48.280;14.292;2023-11-18T07:42:12;9.70;;;9.70;;
50417;SDS011;36346;48.280;14.292;2023-11-18T07:44:42;9.98;;;9.97;;
50417;SDS011;36346;48.280;14.292;2023-11-18T07:47:13;9.81;;;9.81;;
50417;SDS011;36346;48.280;14.292;2023-11-18T07:49:44;10.12;;;10.12;;
50417;SDS011;36346;48.280;14.292;2023-11-18T07:52:18;9.65;;;9.65;;
50417;SDS011;36346;48.280;14.292;2023-11-18T07:54:48;9.27;;;9.27;;
50417;SDS011;36346;48.280;14.292;2023-11-18T07:57:20;9.65;;;9.62;;
50417;SDS011;36346;48.280;14.292;2023-11-18T07:59:52;9.75;;;9.75;;
50417;SDS011;36346;48.280;14.292;2023-11-18T08:02:20;9.42;;;9.41;;
50417;SDS011;36346;48.280;14.292;2023-11-18T08:04:49;11.72;;;11.70;;
50417;SDS011;36346;48.280;14.292;2023-11-18T08:07:17;9.40;;;9.40;;
50417;SDS011;36346;48.280;14.292;2023-11-18T08:09:46;9.17;;;9.17;;
50417;SDS011;36346;48.280;14.292;2023-11-18T08:12:15;10.36;;;10.30;;
50417;SDS011;36346;48.280;14.292;2023-11-18T08:14:44;9.91;;;9.88;;
50417;SDS011;36346;48.280;14.292;2023-11-18T08:17:12;9.77;;;9.77;;
50417;SDS011;36346;48.280;14.292;2023-11-18T08:19:41;9.49;;;9.49;;
50417;SDS011;36346;48.280;14.292;2023-11-18T08:22:14;9.35;;;9.33;;
50417;SDS011;36346;48.280;14.292;2023-11-18T08:24:47;9.50;;;9.46;;
50417;SDS011;36346;48.280;14.292;2023-11-18T08:27:16;10.55;;;10.55;;
50417;SDS011;36346;48.280;14.292;2023-11-18T08:29:45;10.47;;;10.46;;
50417;SDS011;36346;48.280;14.292;2023-11-18T08:32:14;10.16;;;10.16;;
50417;SDS011;36346;48.280;14.292;2023-11-18T08:34:42;10.30;;;10.30;;
50417;SDS011;36346;48.280;14.292;2023-11-18T08:37:10;9.88;;;9.88;;
50417;SDS011;36346;48.280;14.292;2023-11-18T08:39:38;10.30;;;10.27;;
50417;SDS011;36346;48.280;14.292;2023-11-18T08:42:06;11.10;;;11.02;;
50417;SDS011;36346;48.280;14.292;2023-11-18T08:44:35;11.79;;;11.62;;
50417;SDS011;36346;48.280;14.292;2023-11-18T08:47:03;11.59;;;11.52;;
50417;SDS011;36346;48.280;14.292;2023-11-18T08:49:36;11.66;;;11.66;;
50417;SDS011;36346;48.280;14.292;2023-11-18T08:52:05;12.05;;;11.95;;
50417;SDS011;36346;48.280;14.292;2023-11-18T08:54:38;11.74;;;11.74;;
50417;SDS011;36346;48.280;14.292;2023-11-18T08:57:29;12.02;;;11.99;;
50417;SDS011;36346;48.280;14.292;2023-11-18T09:00:16;11.67;;;11.63;;
50417;SDS011;36346;48.280;14.292;2023-11-18T09:03:04;12.05;;;11.87;;
50417;SDS011;36346;48.280;14.292;2023-11-18T09:05:33;16.23;;;15.99;;
50417;SDS011;36346;48.280;14.292;2023-11-18T09:08:03;12.50;;;12.44;;
50417;SDS011;36346;48.280;14.292;2023-11-18T09:10:33;12.30;;;12.23;;
50417;SDS011;36346;48.280;14.292;2023-11-18T09:13:02;11.77;;;11.71;;
50417;SDS011;36346;48.280;14.292;2023-11-18T09:15:31;11.34;;;11.34;;
50417;SDS011;36346;48.280;14.292;2023-11-18T09:18:00;11.30;;;11.29;;
50417;SDS011;36346;48.280;14.292;2023-11-18T09:20:30;11.03;;;11.02;;
50417;SDS011;36346;48.280;14.292;2023-11-18T09:22:58;11.72;;;11.72;;
50417;SDS011;36346;48.280;14.292;2023-11-18T09:25:27;11.29;;;11.29;;
50417;SDS011;36346;48.280;14.292;2023-11-18T09:27:55;11.06;;;11.04;;
50417;SDS011;36346;48.280;14.292;2023-11-18T09:30:32;11.27;;;11.24;;
50417;SDS011;36346;48.280;14.292;2023-11-18T09:33:01;11.35;;;11.33;;
50417;SDS011;36346;48.280;14.292;2023-11-18T09:35:31;10.86;;;10.85;;
50417;SDS011;36346;48.280;14.292;2023-11-18T09:38:02;11.03;;;11.01;;
50417;SDS011;36346;48.280;14.292;2023-11-18T09:40:34;10.84;;;10.84;;
50417;SDS011;36346;48.280;14.292;2023-11-18T09:43:11;10.64;;;10.63;;
50417;SDS011;36346;48.280;14.292;2023-11-18T09:45:43;11.03;;;11.03;;
50417;SDS011;36346;48.280;14.292;2023-11-18T09:48:14;10.18;;;10.18;;
50417;SDS011;36346;48.280;14.292;2023-11-18T09:50:47;9.50;;;9.50;;
50417;SDS011;36346;48.280;14.292;2023-11-18T09:53:16;9.47;;;9.47;;
50417;SDS011;36346;48.280;14.292;2023-11-18T09:55:55;10.03;;;10.03;;
50417;SDS011;36346;48.280;14.292;2023-11-18T10:01:17;9.79;;;9.79;;
50417;SDS011;36346;48.280;14.292;2023-11-18T10:03:47;8.17;;;8.17;;
50417;SDS011;36346;48.280;14.292;2023-11-18T10:06:19;7.87;;;7.87;;
50417;SDS011;36346;48.280;14.292;2023-11-18T10:08:50;8.68;;;8.68;;
50417;SDS011;36346;48.280;14.292;2023-11-18T10:11:21;8.91;;;8.91;;
50417;SDS011;36346;48.280;14.292;2023-11-18T10:13:58;8.47;;;8.46;;
50417;SDS011;36346;48.280;14.292;2023-11-18T10:16:34;8.48;;;8.47;;
50417;SDS011;36346;48.280;14.292;2023-11-18T10:19:06;8.16;;;8.16;;
50417;SDS011;36346;48.280;14.292;2023-11-18T10:21:37;8.00;;;8.00;;
50417;SDS011;36346;48.280;14.292;2023-11-18T10:24:07;7.41;;;7.41;;
50417;SDS011;36346;48.280;14.292;2023-11-18T10:26:42;7.60;;;7.60;;
50417;SDS011;36346;48.280;14.292;2023-11-18T10:29:13;7.24;;;7.24;;
50417;SDS011;36346;48.280;14.292;2023-11-18T10:31:42;7.57;;;7.57;;
50417;SDS011;36346;48.280;14.292;2023-11-18T10:34:13;7.67;;;7.67;;
50417;SDS011;36346;48.280;14.292;2023-11-18T10:36:59;7.25;;;7.25;;
50417;SDS011;36346;48.280;14.292;2023-11-18T10:39:31;7.06;;;7.03;;
50417;SDS011;36346;48.280;14.292;2023-11-18T10:42:00;6.78;;;6.78;;
50417;SDS011;36346;48.280;14.292;2023-11-18T10:44:29;7.40;;;7.40;;
50417;SDS011;36346;48.280;14.292;2023-11-18T10:46:57;7.73;;;7.73;;
50417;SDS011;36346;48.280;14.292;2023-11-18T10:49:29;7.48;;;7.48;;
50417;SDS011;36346;48.280;14.292;2023-11-18T10:52:05;7.17;;;7.17;;
50417;SDS011;36346;48.280;14.292;2023-11-18T10:54:36;7.31;;;7.30;;
50417;SDS011;36346;48.280;14.292;2023-11-18T10:57:05;7.38;;;7.38;;
50417;SDS011;36346;48.280;14.292;2023-11-18T10:59:57;8.63;;;8.63;;
50417;SDS011;36346;48.280;14.292;2023-11-18T11:02:42;8.97;;;8.94;;
50417;SDS011;36346;48.280;14.292;2023-11-18T11:05:10;8.22;;;8.22;;
50417;SDS011;36346;48.280;14.292;2023-11-18T11:07:49;8.16;;;8.16;;
50417;SDS011;36346;48.280;14.292;2023-11-18T11:10:17;7.77;;;7.76;;
50417;SDS011;36346;48.280;14.292;2023-11-18T11:12:53;7.51;;;7.51;;
50417;SDS011;36346;48.280;14.292;2023-11-18T11:15:25;7.42;;;7.42;;
50417;SDS011;36346;48.280;14.292;2023-11-18T11:18:19;7.31;;;7.31;;
50417;SDS011;36346;48.280;14.292;2023-11-18T11:26:50;7.24;;;7.24;;
50417;SDS011;36346;48.280;14.292;2023-11-18T11:29:50;7.10;;;7.10;;
50417;SDS011;36346;48.280;14.292;2023-11-18T11:35:01;7.02;;;7.02;;
50417;SDS011;36346;48.280;14.292;2023-11-18T11:37:36;7.09;;;7.08;;
50417;SDS011;36346;48.280;14.292;2023-11-18T11:40:08;7.03;;;7.03;;
50417;SDS011;36346;48.280;14.292;2023-11-18T11:42:39;6.79;;;6.79;;
50417;SDS011;36346;48.280;14.292;2023-11-18T11:45:10;6.25;;;6.25;;
50417;SDS011;36346;48.280;14.292;2023-11-18T11:47:48;6.48;;;6.48;;
50417;SDS011;36346;48.280;14.292;2023-11-18T11:50:20;6.61;;;6.61;;
50417;SDS011;36346;48.280;14.292;2023-11-18T11:53:04;6.25;;;6.25;;
50417;SDS011;36346;48.280;14.292;2023-11-18T11:55:46;6.13;;;6.13;;
50417;SDS011;36346;48.280;14.292;2023-11-18T12:00:55;6.28;;;6.27;;
50417;SDS011;36346;48.280;14.292;2023-11-18T12:03:23;6.20;;;6.13;;
50417;SDS011;36346;48.280;14.292;2023-11-18T12:05:54;6.40;;;6.40;;
50417;SDS011;36346;48.280;14.292;2023-11-18T12:08:24;5.47;;;5.47;;
50417;SDS011;36346;48.280;14.292;2023-11-18T12:10:55;5.53;;;5.48;;
50417;SDS011;36346;48.280;14.292;2023-11-18T12:13:24;5.97;;;5.97;;
50417;SDS011;36346;48.280;14.292;2023-11-18T12:15:54;5.92;;;5.92;;
50417;SDS011;36346;48.280;14.292;2023-11-18T12:18:27;5.77;;;5.77;;
50417;SDS011;36346;48.280;14.292;2023-11-18T12:20:56;6.50;;;6.50;;
50417;SDS011;36346;48.280;14.292;2023-11-18T12:23:25;5.87;;;5.87;;
50417;SDS011;36346;48.280;14.292;2023-11-18T12:25:54;6.63;;;6.63;;
50417;SDS011;36346;48.280;14.292;2023-11-18T12:28:25;6.43;;;6.43;;
50417;SDS011;36346;48.280;14.292;2023-11-18T12:30:55;6.60;;;6.60;;
50417;SDS011;36346;48.280;14.292;2023-11-18T12:33:25;6.58;;;6.58;;
50417;SDS011;36346;48.280;14.292;2023-11-18T12:42:09;6.11;;;6.11;;
50417;SDS011;36346;48.280;14.292;2023-11-18T12:48:18;6.97;;;6.97;;
50417;SDS011;36346;48.280;14.292;2023-11-18T12:50:54;7.32;;;7.29;;
50417;SDS011;36346;48.280;14.292;2023-11-18T12:53:23;6.54;;;6.54;;
50417;SDS011;36346;48.280;14.292;2023-11-18T12:55:52;6.15;;;6.15;;
50417;SDS011;36346;48.280;14.292;2023-11-18T12:58:25;5.78;;;5.78;;
50417;SDS011;36346;48.280;14.292;2023-11-18T13:00:54;5.74;;;5.74;;
50417;SDS011;36346;48.280;14.292;2023-11-18T13:03:28;5.15;;;5.15;;
50417;SDS011;36346;48.280;14.292;2023-11-18T13:05:56;5.36;;;5.36;;
50417;SDS011;36346;48.280;14.292;2023-11-18T13:08:25;5.19;;;5.19;;
50417;SDS011;36346;48.280;14.292;2023-11-18T13:10:58;4.95;;;4.95;;
50417;SDS011;36346;48.280;14.292;2023-11-18T13:13:35;4.47;;;4.47;;
50417;SDS011;36346;48.280;14.292;2023-11-18T13:16:04;4.29;;;4.29;;
50417;SDS011;36346;48.280;14.292;2023-11-18T13:18:43;4.57;;;4.57;;
50417;SDS011;36346;48.280;14.292;2023-11-18T13:21:16;4.50;;;4.50;;
50417;SDS011;36346;48.280;14.292;2023-11-18T13:23:45;4.36;;;4.34;;
50417;SDS011;36346;48.280;14.292;2023-11-18T13:26:16;4.78;;;4.78;;
50417;SDS011;36346;48.280;14.292;2023-11-18T13:28:45;4.63;;;4.63;;
50417;SDS011;36346;48.280;14.292;2023-11-18T13:31:17;4.65;;;4.65;;
50417;SDS011;36346;48.280;14.292;2023-11-18T13:33:47;5.03;;;5.03;;
50417;SDS011;36346;48.280;14.292;2023-11-18T13:36:16;5.01;;;5.01;;
50417;SDS011;36346;48.280;14.292;2023-11-18T13:38:47;5.23;;;5.23;;
50417;SDS011;36346;48.280;14.292;2023-11-18T13:41:30;6.04;;;6.04;;
50417;SDS011;36346;48.280;14.292;2023-11-18T13:44:01;5.92;;;5.92;;
50417;SDS011;36346;48.280;14.292;2023-11-18T13:46:33;6.17;;;6.16;;
50417;SDS011;36346;48.280;14.292;2023-11-18T13:49:05;6.49;;;6.49;;
50417;SDS011;36346;48.280;14.292;2023-11-18T13:51:38;6.94;;;6.94;;
50417;SDS011;36346;48.280;14.292;2023-11-18T13:54:07;7.29;;;7.29;;
50417;SDS011;36346;48.280;14.292;2023-11-18T13:56:36;8.45;;;8.45;;
50417;SDS011;36346;48.280;14.292;2023-11-18T13:59:05;8.28;;;8.28;;
50417;SDS011;36346;48.280;14.292;2023-11-18T14:01:33;7.20;;;7.18;;
50417;SDS011;36346;48.280;14.292;2023-11-18T14:04:02;6.83;;;6.82;;
50417;SDS011;36346;48.280;14.292;2023-11-18T14:06:32;6.64;;;6.64;;
50417;SDS011;36346;48.280;14.292;2023-11-18T14:09:00;6.69;;;6.68;;
50417;SDS011;36346;48.280;14.292;2023-11-18T14:11:30;6.40;;;6.40;;
50417;SDS011;36346;48.280;14.292;2023-11-18T14:14:03;6.36;;;6.36;;
50417;SDS011;36346;48.280;14.292;2023-11-18T14:16:31;6.19;;;6.19;;
50417;SDS011;36346;48.280;14.292;2023-11-18T14:19:01;5.89;;;5.89;;
50417;SDS011;36346;48.280;14.292;2023-11-18T14:21:32;5.96;;;5.96;;
50417;SDS011;36346;48.280;14.292;2023-11-18T14:24:01;6.68;;;6.63;;
50417;SDS011;36346;48.280;14.292;2023-11-18T14:26:33;6.79;;;6.71;;
50417;SDS011;36346;48.280;14.292;2023-11-18T14:29:01;6.77;;;6.75;;
50417;SDS011;36346;48.280;14.292;2023-11-18T14:31:31;7.02;;;7.02;;
50417;SDS011;36346;48.280;14.292;2023-11-18T14:34:03;6.60;;;6.60;;
50417;SDS011;36346;48.280;14.292;2023-11-18T14:36:33;7.03;;;7.02;;
50417;SDS011;36346;48.280;14.292;2023-11-18T14:39:01;7.11;;;7.11;;
50417;SDS011;36346;48.280;14.292;2023-11-18T14:41:30;7.35;;;7.35;;
50417;SDS011;36346;48.280;14.292;2023-11-18T14:44:04;7.13;;;7.07;;
50417;SDS011;36346;48.280;14.292;2023-11-18T14:46:32;7.65;;;7.65;;
50417;SDS011;36346;48.280;14.292;2023-11-18T14:49:02;6.95;;;6.95;;
50417;SDS011;36346;48.280;14.292;2023-11-18T14:51:33;7.33;;;7.33;;
50417;SDS011;36346;48.280;14.292;2023-11-18T14:54:02;7.06;;;7.06;;
50417;SDS011;36346;48.280;14.292;2023-11-18T14:56:30;7.30;;;7.30;;
50417;SDS011;36346;48.280;14.292;2023-11-18T14:58:58;8.05;;;8.05;;
50417;SDS011;36346;48.280;14.292;2023-11-18T15:01:27;7.53;;;7.53;;
50417;SDS011;36346;48.280;14.292;2023-11-18T15:03:56;7.33;;;7.33;;
50417;SDS011;36346;48.280;14.292;2023-11-18T15:06:26;6.76;;;6.75;;
50417;SDS011;36346;48.280;14.292;2023-11-18T15:08:57;7.30;;;7.30;;
50417;SDS011;36346;48.280;14.292;2023-11-18T15:11:25;7.71;;;7.69;;
50417;SDS011;36346;48.280;14.292;2023-11-18T15:13:53;7.85;;;7.79;;
50417;SDS011;36346;48.280;14.292;2023-11-18T15:16:24;7.60;;;7.60;;